Terminal Aerodrome Forecast
Issued by NWS

Home | Current Version | Previous Version | Graphics & Text | Print | Product List | Glossary On
Versions: 1 2 3 4 5 6 7 8 9 10 11 12 13 14 15 16
000
FTUS43 KMPX 262300
TAFAXN
TAF
KAXN 262331Z 2700/2724 29013G23KT P6SM SCT080
     FM270200 30011KT P6SM SCT040 BKN070
     FM270700 30013KT P6SM BKN025 OVC040
     FM271200 32015G25KT P6SM -SHRA BKN015 OVC030
     FM271800 34015G22KT P6SM VCSH SCT020 BKN035=

USA.gov is the U.S. government's official web portal to all federal, state and local government web resources and services.